Terminal Aerodrome Forecast
Issued by NWS

Current Version | Previous Version | Text Only | Print | Product List | Glossary Off
Versions: 1 2 3 4 5 6 7 8 9 10 11 12 13 14

176
FTUS41 KILN 070859 AAA
TAFLCK
TAF AMD
KLCK 070859Z 0709/0806 27007KT P6SM SCT020 BKN250
     FM071300 24006KT P6SM BKN150
     FM072300 25007KT P6SM BKN100=

USA.gov is the U.S. government's official web portal to all federal, state and local government web resources and services.